Terminal Aerodrome Forecast
Issued by NWS

Home | Current Version | Previous Version | Text Only | Print | Product List | Glossary On
Versions: 1 2 3 4 5 6 7 8 9 10 11 12 13 14 15 16 17 18 19 20 21 22 23 24
000
FTUS45 KBOI 160520
TAFJER
TAF
KJER 160520Z 1606/1706 07007KT P6SM SCT120
     FM161200 05010KT P6SM SCT120
     FM162000 27007KT P6SM SCT150
     FM170100 VRB03KT P6SM SKC=

USA.gov is the U.S. government's official web portal to all federal, state and local government web resources and services.